sensor_id;sensor_type;location;lat;lon;timestamp;temperature;humidity
70986;DHT22;58645;43.068;25.610;2023-02-01T00:00:01;2.20;99.90
70986;DHT22;58645;43.068;25.610;2023-02-01T00:02:27;2.20;99.90
70986;DHT22;58645;43.068;25.610;2023-02-01T00:04:53;2.30;99.90
70986;DHT22;58645;43.068;25.610;2023-02-01T00:07:19;2.20;99.90
70986;DHT22;58645;43.068;25.610;2023-02-01T00:09:44;2.20;99.90
70986;DHT22;58645;43.068;25.610;2023-02-01T00:12:10;2.20;99.90
70986;DHT22;58645;43.068;25.610;2023-02-01T00:14:36;2.20;99.90
70986;DHT22;58645;43.068;25.610;2023-02-01T00:17:07;2.20;99.90
70986;DHT22;58645;43.068;25.610;2023-02-01T00:19:33;2.20;99.90
70986;DHT22;58645;43.068;25.610;2023-02-01T00:21:59;2.20;99.90
70986;DHT22;58645;43.068;25.610;2023-02-01T00:24:25;2.20;99.90
70986;DHT22;58645;43.068;25.610;2023-02-01T00:26:51;2.20;99.90
70986;DHT22;58645;43.068;25.610;2023-02-01T00:29:19;2.20;99.90
70986;DHT22;58645;43.068;25.610;2023-02-01T00:31:46;2.20;99.90
70986;DHT22;58645;43.068;25.610;2023-02-01T00:34:14;2.20;99.90
70986;DHT22;58645;43.068;25.610;2023-02-01T00:36:41;2.20;99.90
70986;DHT22;58645;43.068;25.610;2023-02-01T00:39:07;2.30;99.90
70986;DHT22;58645;43.068;25.610;2023-02-01T00:41:33;2.30;99.90
70986;DHT22;58645;43.068;25.610;2023-02-01T00:43:59;2.30;99.90
70986;DHT22;58645;43.068;25.610;2023-02-01T00:46:25;2.30;99.90
70986;DHT22;58645;43.068;25.610;2023-02-01T00:48:51;2.30;99.90
70986;DHT22;58645;43.068;25.610;2023-02-01T00:51:22;2.30;99.90
70986;DHT22;58645;43.068;25.610;2023-02-01T00:53:48;2.30;99.90
70986;DHT22;58645;43.068;25.610;2023-02-01T00:56:14;2.30;99.90
70986;DHT22;58645;43.068;25.610;2023-02-01T00:58:40;2.30;99.90
70986;DHT22;58645;43.068;25.610;2023-02-01T01:01:12;2.30;99.90
70986;DHT22;58645;43.068;25.610;2023-02-01T01:03:42;2.30;99.90
70986;DHT22;58645;43.068;25.610;2023-02-01T01:06:11;2.30;99.90
70986;DHT22;58645;43.068;25.610;2023-02-01T01:08:37;2.30;99.90
70986;DHT22;58645;43.068;25.610;2023-02-01T01:11:11;2.30;99.90
70986;DHT22;58645;43.068;25.610;2023-02-01T01:13:37;2.20;99.90
70986;DHT22;58645;43.068;25.610;2023-02-01T01:16:05;2.30;99.90
70986;DHT22;58645;43.068;25.610;2023-02-01T01:18:32;2.30;99.90
70986;DHT22;58645;43.068;25.610;2023-02-01T01:20:58;2.30;99.90
70986;DHT22;58645;43.068;25.610;2023-02-01T01:23:24;2.30;99.90
70986;DHT22;58645;43.068;25.610;2023-02-01T01:25:50;2.30;99.90
70986;DHT22;58645;43.068;25.610;2023-02-01T01:28:16;2.40;99.90
70986;DHT22;58645;43.068;25.610;2023-02-01T01:30:42;2.30;99.90
70986;DHT22;58645;43.068;25.610;2023-02-01T01:33:08;2.30;99.90
70986;DHT22;58645;43.068;25.610;2023-02-01T01:35:34;2.30;99.90
70986;DHT22;58645;43.068;25.610;2023-02-01T01:38:01;2.30;99.90
70986;DHT22;58645;43.068;25.610;2023-02-01T01:40:27;2.30;99.90
70986;DHT22;58645;43.068;25.610;2023-02-01T01:42:54;2.40;99.90
70986;DHT22;58645;43.068;25.610;2023-02-01T01:47:59;2.40;99.90
70986;DHT22;58645;43.068;25.610;2023-02-01T01:50:57;2.40;99.90
70986;DHT22;58645;43.068;25.610;2023-02-01T01:53:28;2.40;99.90
70986;DHT22;58645;43.068;25.610;2023-02-01T01:55:56;2.40;99.90
70986;DHT22;58645;43.068;25.610;2023-02-01T01:58:24;2.40;99.90
70986;DHT22;58645;43.068;25.610;2023-02-01T02:00:52;2.40;99.90
70986;DHT22;58645;43.068;25.610;2023-02-01T02:03:40;2.40;99.90
70986;DHT22;58645;43.068;25.610;2023-02-01T02:06:11;2.40;99.90
70986;DHT22;58645;43.068;25.610;2023-02-01T02:08:39;2.40;99.90
70986;DHT22;58645;43.068;25.610;2023-02-01T02:11:05;2.30;99.90
70986;DHT22;58645;43.068;25.610;2023-02-01T02:13:40;2.30;99.90
70986;DHT22;58645;43.068;25.610;2023-02-01T02:35:59;2.10;99.90
70986;DHT22;58645;43.068;25.610;2023-02-01T02:38:47;2.00;99.90
70986;DHT22;58645;43.068;25.610;2023-02-01T02:41:35;2.00;99.90
70986;DHT22;58645;43.068;25.610;2023-02-01T02:44:39;1.90;99.90
70986;DHT22;58645;43.068;25.610;2023-02-01T02:47:31;1.90;99.90
70986;DHT22;58645;43.068;25.610;2023-02-01T02:50:09;1.80;99.90
70986;DHT22;58645;43.068;25.610;2023-02-01T02:53:15;1.80;99.90
70986;DHT22;58645;43.068;25.610;2023-02-01T02:56:02;1.80;99.90
70986;DHT22;58645;43.068;25.610;2023-02-01T02:58:48;1.90;99.90
70986;DHT22;58645;43.068;25.610;2023-02-01T03:01:33;1.90;99.90
70986;DHT22;58645;43.068;25.610;2023-02-01T03:04:18;1.90;99.90
70986;DHT22;58645;43.068;25.610;2023-02-01T03:06:45;2.00;99.90
70986;DHT22;58645;43.068;25.610;2023-02-01T03:09:30;2.10;99.90
70986;DHT22;58645;43.068;25.610;2023-02-01T03:12:00;2.10;99.90
70986;DHT22;58645;43.068;25.610;2023-02-01T03:14:48;2.20;99.90
70986;DHT22;58645;43.068;25.610;2023-02-01T03:17:21;2.20;99.90
70986;DHT22;58645;43.068;25.610;2023-02-01T03:19:51;2.20;99.90
70986;DHT22;58645;43.068;25.610;2023-02-01T03:22:23;2.20;99.90
70986;DHT22;58645;43.068;25.610;2023-02-01T03:25:05;2.20;99.90
70986;DHT22;58645;43.068;25.610;2023-02-01T03:27:53;2.20;99.90
70986;DHT22;58645;43.068;25.610;2023-02-01T03:30:34;2.20;99.90
70986;DHT22;58645;43.068;25.610;2023-02-01T03:33:04;2.20;99.90
70986;DHT22;58645;43.068;25.610;2023-02-01T03:38:38;2.20;99.90
70986;DHT22;58645;43.068;25.610;2023-02-01T03:44:14;2.20;99.90
70986;DHT22;58645;43.068;25.610;2023-02-01T03:46:55;2.20;99.90
70986;DHT22;58645;43.068;25.610;2023-02-01T03:49:37;2.20;99.90
70986;DHT22;58645;43.068;25.610;2023-02-01T03:52:06;2.20;99.90
70986;DHT22;58645;43.068;25.610;2023-02-01T03:54:33;2.20;99.90
70986;DHT22;58645;43.068;25.610;2023-02-01T03:57:03;2.20;99.90
70986;DHT22;58645;43.068;25.610;2023-02-01T03:59:30;2.30;99.90
70986;DHT22;58645;43.068;25.610;2023-02-01T04:01:56;2.30;99.90
70986;DHT22;58645;43.068;25.610;2023-02-01T04:04:21;2.20;99.90
70986;DHT22;58645;43.068;25.610;2023-02-01T04:06:48;2.20;99.90
70986;DHT22;58645;43.068;25.610;2023-02-01T04:09:14;2.20;99.90
70986;DHT22;58645;43.068;25.610;2023-02-01T04:11:40;2.20;99.90
70986;DHT22;58645;43.068;25.610;2023-02-01T04:14:05;2.10;99.90
70986;DHT22;58645;43.068;25.610;2023-02-01T04:16:32;2.10;99.90
70986;DHT22;58645;43.068;25.610;2023-02-01T04:18:58;2.10;99.90
70986;DHT22;58645;43.068;25.610;2023-02-01T04:21:25;2.10;99.90
70986;DHT22;58645;43.068;25.610;2023-02-01T04:23:51;2.10;99.90
70986;DHT22;58645;43.068;25.610;2023-02-01T04:26:17;2.10;99.90
70986;DHT22;58645;43.068;25.610;2023-02-01T04:28:44;2.10;99.90
70986;DHT22;58645;43.068;25.610;2023-02-01T04:31:14;2.10;99.90
70986;DHT22;58645;43.068;25.610;2023-02-01T04:33:39;2.10;99.90
70986;DHT22;58645;43.068;25.610;2023-02-01T04:36:05;2.10;99.90
70986;DHT22;58645;43.068;25.610;2023-02-01T04:38:31;2.00;99.90
70986;DHT22;58645;43.068;25.610;2023-02-01T04:40:58;2.10;99.90
70986;DHT22;58645;43.068;25.610;2023-02-01T04:43:24;2.00;99.90
70986;DHT22;58645;43.068;25.610;2023-02-01T04:45:50;2.00;99.90
70986;DHT22;58645;43.068;25.610;2023-02-01T04:48:18;2.10;99.90
70986;DHT22;58645;43.068;25.610;2023-02-01T04:50:45;2.00;99.90
70986;DHT22;58645;43.068;25.610;2023-02-01T04:53:17;2.00;99.90
70986;DHT22;58645;43.068;25.610;2023-02-01T04:55:43;2.00;99.90
70986;DHT22;58645;43.068;25.610;2023-02-01T04:58:10;2.00;99.90
70986;DHT22;58645;43.068;25.610;2023-02-01T05:00:36;2.00;99.90
70986;DHT22;58645;43.068;25.610;2023-02-01T05:03:03;1.90;99.90
70986;DHT22;58645;43.068;25.610;2023-02-01T05:05:29;1.90;99.90
70986;DHT22;58645;43.068;25.610;2023-02-01T05:07:55;1.90;99.90
70986;DHT22;58645;43.068;25.610;2023-02-01T05:10:21;1.80;99.90
70986;DHT22;58645;43.068;25.610;2023-02-01T05:12:46;1.80;99.90
70986;DHT22;58645;43.068;25.610;2023-02-01T05:15:31;1.70;99.90
70986;DHT22;58645;43.068;25.610;2023-02-01T05:17:57;1.60;99.90
70986;DHT22;58645;43.068;25.610;2023-02-01T05:20:24;1.60;99.90
70986;DHT22;58645;43.068;25.610;2023-02-01T05:22:50;1.60;99.90
70986;DHT22;58645;43.068;25.610;2023-02-01T05:25:16;1.60;99.90
70986;DHT22;58645;43.068;25.610;2023-02-01T05:27:42;1.50;99.90
70986;DHT22;58645;43.068;25.610;2023-02-01T05:30:08;1.50;99.90
70986;DHT22;58645;43.068;25.610;2023-02-01T05:32:34;1.50;99.90
70986;DHT22;58645;43.068;25.610;2023-02-01T05:35:00;1.40;99.90
70986;DHT22;58645;43.068;25.610;2023-02-01T05:37:26;1.40;99.90
70986;DHT22;58645;43.068;25.610;2023-02-01T05:39:52;1.30;99.90
70986;DHT22;58645;43.068;25.610;2023-02-01T05:42:17;1.30;99.90
70986;DHT22;58645;43.068;25.610;2023-02-01T05:44:43;1.30;99.90
70986;DHT22;58645;43.068;25.610;2023-02-01T05:47:09;1.30;99.90
70986;DHT22;58645;43.068;25.610;2023-02-01T05:49:35;1.30;99.90
70986;DHT22;58645;43.068;25.610;2023-02-01T05:52:01;1.30;99.90
70986;DHT22;58645;43.068;25.610;2023-02-01T05:54:27;1.30;99.90
70986;DHT22;58645;43.068;25.610;2023-02-01T05:56:53;1.30;99.90
70986;DHT22;58645;43.068;25.610;2023-02-01T05:59:22;1.20;99.90
70986;DHT22;58645;43.068;25.610;2023-02-01T06:01:47;1.20;99.90
70986;DHT22;58645;43.068;25.610;2023-02-01T06:04:13;1.20;99.90
70986;DHT22;58645;43.068;25.610;2023-02-01T06:06:39;1.20;99.90
70986;DHT22;58645;43.068;25.610;2023-02-01T06:09:05;1.20;99.90
70986;DHT22;58645;43.068;25.610;2023-02-01T06:11:31;1.20;99.90
70986;DHT22;58645;43.068;25.610;2023-02-01T06:13:56;1.30;99.90
70986;DHT22;58645;43.068;25.610;2023-02-01T06:16:22;1.30;99.90
70986;DHT22;58645;43.068;25.610;2023-02-01T06:18:48;1.30;99.90
70986;DHT22;58645;43.068;25.610;2023-02-01T06:21:15;1.40;99.90
70986;DHT22;58645;43.068;25.610;2023-02-01T06:23:52;1.40;99.90
70986;DHT22;58645;43.068;25.610;2023-02-01T06:26:18;1.50;99.90
70986;DHT22;58645;43.068;25.610;2023-02-01T06:28:45;1.60;99.90
70986;DHT22;58645;43.068;25.610;2023-02-01T06:31:11;3.30;99.90
70986;DHT22;58645;43.068;25.610;2023-02-01T06:33:37;5.30;99.90
70986;DHT22;58645;43.068;25.610;2023-02-01T06:36:05;6.80;89.60
70986;DHT22;58645;43.068;25.610;2023-02-01T06:38:32;7.80;78.90
70986;DHT22;58645;43.068;25.610;2023-02-01T06:41:00;8.00;75.70
70986;DHT22;58645;43.068;25.610;2023-02-01T06:43:27;7.00;75.40
70986;DHT22;58645;43.068;25.610;2023-02-01T06:45:58;7.20;76.70
70986;DHT22;58645;43.068;25.610;2023-02-01T06:48:24;7.70;73.00
70986;DHT22;58645;43.068;25.610;2023-02-01T06:50:50;8.50;71.50
70986;DHT22;58645;43.068;25.610;2023-02-01T06:53:16;9.00;68.30
70986;DHT22;58645;43.068;25.610;2023-02-01T06:55:50;9.80;65.80
70986;DHT22;58645;43.068;25.610;2023-02-01T06:58:16;10.10;63.00
70986;DHT22;58645;43.068;25.610;2023-02-01T07:00:41;10.70;61.70
70986;DHT22;58645;43.068;25.610;2023-02-01T07:03:07;11.40;60.00
70986;DHT22;58645;43.068;25.610;2023-02-01T07:05:33;11.80;57.40
70986;DHT22;58645;43.068;25.610;2023-02-01T07:07:58;11.70;56.10
70986;DHT22;58645;43.068;25.610;2023-02-01T07:10:24;11.10;57.20
70986;DHT22;58645;43.068;25.610;2023-02-01T07:12:50;10.80;58.30
70986;DHT22;58645;43.068;25.610;2023-02-01T07:15:16;11.20;59.20
70986;DHT22;58645;43.068;25.610;2023-02-01T07:17:41;10.10;60.10
70986;DHT22;58645;43.068;25.610;2023-02-01T07:20:08;9.10;63.70
70986;DHT22;58645;43.068;25.610;2023-02-01T07:22:34;8.20;66.00
70986;DHT22;58645;43.068;25.610;2023-02-01T07:24:59;7.50;68.80
70986;DHT22;58645;43.068;25.610;2023-02-01T07:27:25;6.90;71.40
70986;DHT22;58645;43.068;25.610;2023-02-01T07:29:51;6.30;74.00
70986;DHT22;58645;43.068;25.610;2023-02-01T07:32:17;5.80;76.30
70986;DHT22;58645;43.068;25.610;2023-02-01T07:34:44;5.40;78.30
70986;DHT22;58645;43.068;25.610;2023-02-01T07:37:10;5.10;80.00
70986;DHT22;58645;43.068;25.610;2023-02-01T07:39:36;4.90;81.70
70986;DHT22;58645;43.068;25.610;2023-02-01T07:42:01;4.60;83.50
70986;DHT22;58645;43.068;25.610;2023-02-01T07:44:27;4.70;85.00
70986;DHT22;58645;43.068;25.610;2023-02-01T07:46:53;4.60;86.00
70986;DHT22;58645;43.068;25.610;2023-02-01T07:49:18;4.60;87.80
70986;DHT22;58645;43.068;25.610;2023-02-01T07:51:44;4.60;88.30
70986;DHT22;58645;43.068;25.610;2023-02-01T07:54:10;4.40;89.20
70986;DHT22;58645;43.068;25.610;2023-02-01T07:56:35;4.40;90.10
70986;DHT22;58645;43.068;25.610;2023-02-01T07:59:01;4.60;90.30
70986;DHT22;58645;43.068;25.610;2023-02-01T08:01:28;4.70;90.20
70986;DHT22;58645;43.068;25.610;2023-02-01T08:04:01;5.00;90.00
70986;DHT22;58645;43.068;25.610;2023-02-01T08:06:29;5.20;88.70
70986;DHT22;58645;43.068;25.610;2023-02-01T08:08:56;5.20;87.70
70986;DHT22;58645;43.068;25.610;2023-02-01T08:11:23;6.70;82.30
70986;DHT22;58645;43.068;25.610;2023-02-01T08:13:49;8.30;74.80
70986;DHT22;58645;43.068;25.610;2023-02-01T08:16:16;9.30;69.20
70986;DHT22;58645;43.068;25.610;2023-02-01T08:18:42;11.30;63.60
70986;DHT22;58645;43.068;25.610;2023-02-01T08:21:11;12.10;57.50
70986;DHT22;58645;43.068;25.610;2023-02-01T08:23:39;11.30;58.70
70986;DHT22;58645;43.068;25.610;2023-02-01T08:26:10;11.80;58.00
70986;DHT22;58645;43.068;25.610;2023-02-01T08:28:37;12.30;57.30
70986;DHT22;58645;43.068;25.610;2023-02-01T08:31:05;12.70;55.10
70986;DHT22;58645;43.068;25.610;2023-02-01T08:33:31;13.00;55.20
70986;DHT22;58645;43.068;25.610;2023-02-01T08:35:57;13.90;54.30
70986;DHT22;58645;43.068;25.610;2023-02-01T08:38:22;14.10;53.30
70986;DHT22;58645;43.068;25.610;2023-02-01T08:40:48;13.70;52.60
70986;DHT22;58645;43.068;25.610;2023-02-01T08:43:14;13.60;53.40
70986;DHT22;58645;43.068;25.610;2023-02-01T08:45:39;12.70;54.30
70986;DHT22;58645;43.068;25.610;2023-02-01T08:48:05;11.50;55.90
70986;DHT22;58645;43.068;25.610;2023-02-01T08:50:31;10.80;60.00
70986;DHT22;58645;43.068;25.610;2023-02-01T08:52:57;10.40;61.20
70986;DHT22;58645;43.068;25.610;2023-02-01T08:55:22;9.40;63.80
70986;DHT22;58645;43.068;25.610;2023-02-01T08:57:48;8.90;65.60
70986;DHT22;58645;43.068;25.610;2023-02-01T09:00:16;8.40;67.20
70986;DHT22;58645;43.068;25.610;2023-02-01T09:02:43;7.70;69.70
70986;DHT22;58645;43.068;25.610;2023-02-01T09:05:09;7.40;71.10
70986;DHT22;58645;43.068;25.610;2023-02-01T09:07:36;6.90;72.50
70986;DHT22;58645;43.068;25.610;2023-02-01T09:10:02;6.60;73.90
70986;DHT22;58645;43.068;25.610;2023-02-01T09:12:30;6.50;75.30
70986;DHT22;58645;43.068;25.610;2023-02-01T09:14:56;6.30;75.60
70986;DHT22;58645;43.068;25.610;2023-02-01T09:17:28;6.30;76.80
70986;DHT22;58645;43.068;25.610;2023-02-01T09:19:54;6.20;77.60
70986;DHT22;58645;43.068;25.610;2023-02-01T09:22:20;6.40;76.70
70986;DHT22;58645;43.068;25.610;2023-02-01T09:24:46;6.20;77.70
70986;DHT22;58645;43.068;25.610;2023-02-01T09:27:12;6.10;77.90
70986;DHT22;58645;43.068;25.610;2023-02-01T09:29:38;6.10;78.60
70986;DHT22;58645;43.068;25.610;2023-02-01T09:32:04;6.10;79.10
70986;DHT22;58645;43.068;25.610;2023-02-01T09:34:30;6.20;78.30
70986;DHT22;58645;43.068;25.610;2023-02-01T09:36:56;6.30;78.00
70986;DHT22;58645;43.068;25.610;2023-02-01T09:39:22;6.20;77.90
70986;DHT22;58645;43.068;25.610;2023-02-01T09:46:57;8.50;73.70
70986;DHT22;58645;43.068;25.610;2023-02-01T09:49:37;9.60;67.80
70986;DHT22;58645;43.068;25.610;2023-02-01T09:52:10;9.20;66.80
70986;DHT22;58645;43.068;25.610;2023-02-01T09:54:47;9.70;66.10
70986;DHT22;58645;43.068;25.610;2023-02-01T09:57:21;11.00;63.60
70986;DHT22;58645;43.068;25.610;2023-02-01T09:59:55;12.10;58.40
70986;DHT22;58645;43.068;25.610;2023-02-01T10:02:26;11.50;57.80
70986;DHT22;58645;43.068;25.610;2023-02-01T10:04:59;11.10;60.50
70986;DHT22;58645;43.068;25.610;2023-02-01T10:08:09;11.10;59.10
70986;DHT22;58645;43.068;25.610;2023-02-01T10:10:23;12.10;57.40
70986;DHT22;58645;43.068;25.610;2023-02-01T10:13:37;13.10;54.50
70986;DHT22;58645;43.068;25.610;2023-02-01T10:24:28;14.20;51.30
70986;DHT22;58645;43.068;25.610;2023-02-01T10:29:38;14.00;51.30
70986;DHT22;58645;43.068;25.610;2023-02-01T10:32:15;13.90;51.40
70986;DHT22;58645;43.068;25.610;2023-02-01T10:34:43;12.70;52.80
70986;DHT22;58645;43.068;25.610;2023-02-01T10:37:18;12.80;53.50
70986;DHT22;58645;43.068;25.610;2023-02-01T10:39:49;12.70;53.00
70986;DHT22;58645;43.068;25.610;2023-02-01T10:42:18;13.00;53.50
70986;DHT22;58645;43.068;25.610;2023-02-01T10:44:46;13.60;52.10
70986;DHT22;58645;43.068;25.610;2023-02-01T10:47:14;14.20;49.90
70986;DHT22;58645;43.068;25.610;2023-02-01T10:52:31;14.50;48.90
70986;DHT22;58645;43.068;25.610;2023-02-01T10:58:05;14.80;48.20
70986;DHT22;58645;43.068;25.610;2023-02-01T11:00:43;15.30;47.20
70986;DHT22;58645;43.068;25.610;2023-02-01T11:05:56;13.40;50.60
70986;DHT22;58645;43.068;25.610;2023-02-01T11:08:22;12.10;53.10
70986;DHT22;58645;43.068;25.610;2023-02-01T11:11:00;11.80;53.80
70986;DHT22;58645;43.068;25.610;2023-02-01T11:13:37;11.00;54.90
70986;DHT22;58645;43.068;25.610;2023-02-01T11:16:05;11.20;56.10
70986;DHT22;58645;43.068;25.610;2023-02-01T11:18:35;12.00;53.70
70986;DHT22;58645;43.068;25.610;2023-02-01T11:21:01;12.50;53.50
70986;DHT22;58645;43.068;25.610;2023-02-01T11:23:30;11.90;53.40
70986;DHT22;58645;43.068;25.610;2023-02-01T11:26:14;11.50;54.70
70986;DHT22;58645;43.068;25.610;2023-02-01T11:28:47;12.00;54.10
70986;DHT22;58645;43.068;25.610;2023-02-01T11:31:15;12.30;54.00
70986;DHT22;58645;43.068;25.610;2023-02-01T11:33:50;13.10;52.70
70986;DHT22;58645;43.068;25.610;2023-02-01T11:36:19;14.00;50.90
70986;DHT22;58645;43.068;25.610;2023-02-01T11:39:39;14.40;48.80
70986;DHT22;58645;43.068;25.610;2023-02-01T11:44:35;14.80;47.30
70986;DHT22;58645;43.068;25.610;2023-02-01T11:47:25;15.30;46.40
70986;DHT22;58645;43.068;25.610;2023-02-01T11:49:56;15.20;45.60
70986;DHT22;58645;43.068;25.610;2023-02-01T11:55:35;13.70;47.80
70986;DHT22;58645;43.068;25.610;2023-02-01T12:03:36;13.20;49.50
70986;DHT22;58645;43.068;25.610;2023-02-01T12:09:37;13.60;48.40
70986;DHT22;58645;43.068;25.610;2023-02-01T12:12:08;12.80;48.80
70986;DHT22;58645;43.068;25.610;2023-02-01T12:25:57;11.80;52.30
70986;DHT22;58645;43.068;25.610;2023-02-01T12:37:11;10.30;56.20
70986;DHT22;58645;43.068;25.610;2023-02-01T12:42:31;9.30;58.90
70986;DHT22;58645;43.068;25.610;2023-02-01T12:47:54;9.10;60.30
70986;DHT22;58645;43.068;25.610;2023-02-01T12:50:24;8.90;60.60
70986;DHT22;58645;43.068;25.610;2023-02-01T12:52:54;8.80;61.20
70986;DHT22;58645;43.068;25.610;2023-02-01T13:00:44;8.60;62.20
70986;DHT22;58645;43.068;25.610;2023-02-01T13:06:28;8.80;63.00
70986;DHT22;58645;43.068;25.610;2023-02-01T13:09:22;8.90;63.10
70986;DHT22;58645;43.068;25.610;2023-02-01T13:11:50;8.90;62.90
70986;DHT22;58645;43.068;25.610;2023-02-01T13:16:52;8.80;63.00
70986;DHT22;58645;43.068;25.610;2023-02-01T13:22:11;8.60;63.20
70986;DHT22;58645;43.068;25.610;2023-02-01T13:27:36;8.40;63.60
70986;DHT22;58645;43.068;25.610;2023-02-01T13:30:23;8.30;63.70
70986;DHT22;58645;43.068;25.610;2023-02-01T13:38:51;8.50;64.70
70986;DHT22;58645;43.068;25.610;2023-02-01T13:43:59;8.50;64.20
70986;DHT22;58645;43.068;25.610;2023-02-01T13:46:27;8.60;64.30
70986;DHT22;58645;43.068;25.610;2023-02-01T13:49:01;8.80;64.40
70986;DHT22;58645;43.068;25.610;2023-02-01T13:51:42;8.90;64.10
70986;DHT22;58645;43.068;25.610;2023-02-01T13:56:55;8.90;63.80
70986;DHT22;58645;43.068;25.610;2023-02-01T14:05:10;8.80;63.60
70986;DHT22;58645;43.068;25.610;2023-02-01T14:07:36;8.80;63.90
70986;DHT22;58645;43.068;25.610;2023-02-01T14:13:27;8.70;64.90
70986;DHT22;58645;43.068;25.610;2023-02-01T14:21:19;8.40;64.50
70986;DHT22;58645;43.068;25.610;2023-02-01T14:24:01;8.40;64.50
70986;DHT22;58645;43.068;25.610;2023-02-01T14:29:15;8.20;64.80
70986;DHT22;58645;43.068;25.610;2023-02-01T14:32:06;8.10;64.80
70986;DHT22;58645;43.068;25.610;2023-02-01T14:37:11;8.00;63.80
70986;DHT22;58645;43.068;25.610;2023-02-01T14:39:50;7.90;62.60
70986;DHT22;58645;43.068;25.610;2023-02-01T14:50:38;7.80;63.90
70986;DHT22;58645;43.068;25.610;2023-02-01T15:01:50;7.50;65.30
70986;DHT22;58645;43.068;25.610;2023-02-01T15:04:18;7.40;65.90
70986;DHT22;58645;43.068;25.610;2023-02-01T15:06:53;7.20;66.20
70986;DHT22;58645;43.068;25.610;2023-02-01T15:09:38;7.20;66.70
70986;DHT22;58645;43.068;25.610;2023-02-01T15:14:39;7.00;67.80
70986;DHT22;58645;43.068;25.610;2023-02-01T15:17:25;6.90;68.10
70986;DHT22;58645;43.068;25.610;2023-02-01T15:20:24;6.90;68.70
70986;DHT22;58645;43.068;25.610;2023-02-01T15:25:36;6.70;68.50
70986;DHT22;58645;43.068;25.610;2023-02-01T15:28:04;6.70;68.30
70986;DHT22;58645;43.068;25.610;2023-02-01T15:30:33;6.60;68.00
70986;DHT22;58645;43.068;25.610;2023-02-01T15:35:46;6.50;68.20
70986;DHT22;58645;43.068;25.610;2023-02-01T15:38:42;6.40;68.40
70986;DHT22;58645;43.068;25.610;2023-02-01T15:41:29;6.30;68.80
70986;DHT22;58645;43.068;25.610;2023-02-01T15:46:45;6.20;69.30
70986;DHT22;58645;43.068;25.610;2023-02-01T15:51:50;6.10;70.00
70986;DHT22;58645;43.068;25.610;2023-02-01T15:54:42;6.00;70.10
70986;DHT22;58645;43.068;25.610;2023-02-01T15:57:09;5.90;70.40
70986;DHT22;58645;43.068;25.610;2023-02-01T15:59:43;5.80;70.80
70986;DHT22;58645;43.068;25.610;2023-02-01T16:02:33;5.80;70.80
70986;DHT22;58645;43.068;25.610;2023-02-01T16:04:59;5.70;71.10
70986;DHT22;58645;43.068;25.610;2023-02-01T16:07:31;5.60;71.30
70986;DHT22;58645;43.068;25.610;2023-02-01T16:09:59;5.60;71.60
70986;DHT22;58645;43.068;25.610;2023-02-01T16:12:46;5.50;72.00
70986;DHT22;58645;43.068;25.610;2023-02-01T16:15:12;5.40;72.00
70986;DHT22;58645;43.068;25.610;2023-02-01T16:17:38;5.40;72.20
70986;DHT22;58645;43.068;25.610;2023-02-01T16:20:04;5.30;72.40
70986;DHT22;58645;43.068;25.610;2023-02-01T16:22:30;5.20;72.40
70986;DHT22;58645;43.068;25.610;2023-02-01T16:24:56;5.20;72.80
70986;DHT22;58645;43.068;25.610;2023-02-01T16:27:22;5.20;72.90
70986;DHT22;58645;43.068;25.610;2023-02-01T16:29:48;5.10;73.20
70986;DHT22;58645;43.068;25.610;2023-02-01T16:32:20;5.00;73.40
70986;DHT22;58645;43.068;25.610;2023-02-01T16:34:47;5.00;73.60
70986;DHT22;58645;43.068;25.610;2023-02-01T16:37:16;4.90;73.80
70986;DHT22;58645;43.068;25.610;2023-02-01T16:39:43;4.90;74.00
70986;DHT22;58645;43.068;25.610;2023-02-01T16:42:14;4.90;74.30
70986;DHT22;58645;43.068;25.610;2023-02-01T16:44:40;4.80;74.30
70986;DHT22;58645;43.068;25.610;2023-02-01T16:47:19;4.80;74.50
70986;DHT22;58645;43.068;25.610;2023-02-01T16:49:45;4.70;74.50
70986;DHT22;58645;43.068;25.610;2023-02-01T16:52:20;4.70;75.00
70986;DHT22;58645;43.068;25.610;2023-02-01T16:54:47;4.70;74.50
70986;DHT22;58645;43.068;25.610;2023-02-01T16:57:18;4.60;74.30
70986;DHT22;58645;43.068;25.610;2023-02-01T16:59:45;4.60;74.60
70986;DHT22;58645;43.068;25.610;2023-02-01T17:02:12;4.60;74.50
70986;DHT22;58645;43.068;25.610;2023-02-01T17:04:39;4.60;74.70
70986;DHT22;58645;43.068;25.610;2023-02-01T17:07:05;4.50;74.70
70986;DHT22;58645;43.068;25.610;2023-02-01T17:09:38;4.50;74.30
70986;DHT22;58645;43.068;25.610;2023-02-01T17:12:05;4.50;74.70
70986;DHT22;58645;43.068;25.610;2023-02-01T17:14:34;4.50;74.50
70986;DHT22;58645;43.068;25.610;2023-02-01T17:17:01;4.50;74.20
70986;DHT22;58645;43.068;25.610;2023-02-01T17:19:27;4.50;74.00
70986;DHT22;58645;43.068;25.610;2023-02-01T17:21:56;4.50;74.00
70986;DHT22;58645;43.068;25.610;2023-02-01T17:24:29;4.50;74.10
70986;DHT22;58645;43.068;25.610;2023-02-01T17:26:56;4.50;74.30
70986;DHT22;58645;43.068;25.610;2023-02-01T17:29:22;4.50;74.70
70986;DHT22;58645;43.068;25.610;2023-02-01T17:31:51;4.50;74.80
70986;DHT22;58645;43.068;25.610;2023-02-01T17:34:17;4.40;74.70
70986;DHT22;58645;43.068;25.610;2023-02-01T17:36:44;4.40;75.00
70986;DHT22;58645;43.068;25.610;2023-02-01T17:39:11;4.40;75.10
70986;DHT22;58645;43.068;25.610;2023-02-01T17:41:58;4.30;76.00
70986;DHT22;58645;43.068;25.610;2023-02-01T17:44:24;4.30;76.10
70986;DHT22;58645;43.068;25.610;2023-02-01T17:46:49;4.30;75.80
70986;DHT22;58645;43.068;25.610;2023-02-01T17:49:16;4.20;75.60
70986;DHT22;58645;43.068;25.610;2023-02-01T17:51:42;4.20;75.80
70986;DHT22;58645;43.068;25.610;2023-02-01T17:54:14;4.20;76.10
70986;DHT22;58645;43.068;25.610;2023-02-01T17:56:40;4.20;76.10
70986;DHT22;58645;43.068;25.610;2023-02-01T17:59:05;4.10;76.30
70986;DHT22;58645;43.068;25.610;2023-02-01T18:01:31;4.10;76.30
70986;DHT22;58645;43.068;25.610;2023-02-01T18:03:57;4.10;76.60
70986;DHT22;58645;43.068;25.610;2023-02-01T18:06:24;4.10;76.70
70986;DHT22;58645;43.068;25.610;2023-02-01T18:08:52;4.10;76.60
70986;DHT22;58645;43.068;25.610;2023-02-01T18:11:20;4.00;76.30
70986;DHT22;58645;43.068;25.610;2023-02-01T18:13:48;4.00;76.60
70986;DHT22;58645;43.068;25.610;2023-02-01T18:16:24;3.90;76.90
70986;DHT22;58645;43.068;25.610;2023-02-01T18:18:50;4.00;77.00
70986;DHT22;58645;43.068;25.610;2023-02-01T18:21:18;3.90;77.30
70986;DHT22;58645;43.068;25.610;2023-02-01T18:23:44;3.90;77.50
70986;DHT22;58645;43.068;25.610;2023-02-01T18:26:12;3.80;77.70
70986;DHT22;58645;43.068;25.610;2023-02-01T18:28:38;3.80;77.90
70986;DHT22;58645;43.068;25.610;2023-02-01T18:31:05;3.80;77.60
70986;DHT22;58645;43.068;25.610;2023-02-01T18:33:31;3.80;77.60
70986;DHT22;58645;43.068;25.610;2023-02-01T18:35:57;3.70;77.60